Time,TemperatureF,DewpointF,PressureIn,WindDirection,WindDirectionDegrees,WindSpeedMPH,WindSpeedGustMPH,Humidity,HourlyPrecipIn,Conditions,Clouds,dailyrainin,SoftwareType,DateUTC
2013-05-31 00:01:00,49.0,20.0,30.17,WNW,288,1.0,6.0,32,0.00,,,0.00,,2013-05-31 06:01:00,
2013-05-31 00:11:00,49.0,20.0,30.17,WNW,288,1.0,6.0,32,0.00,,,0.00,,2013-05-31 06:11:00,
2013-05-31 00:21:00,48.0,21.0,30.17,East,80,2.0,5.0,34,0.00,,,0.00,,2013-05-31 06:21:00,
2013-05-31 00:31:00,47.0,20.0,30.17,SW,232,0.0,5.0,34,0.00,,,0.00,,2013-05-31 06:31:00,
2013-05-31 00:41:00,47.0,20.0,30.17,SW,232,0.0,5.0,34,0.00,,,0.00,,2013-05-31 06:41:00,
2013-05-31 00:52:00,47.0,21.0,30.17,SW,232,1.0,3.0,35,0.00,,,0.00,,2013-05-31 06:52:00,
2013-05-31 01:01:00,46.0,21.0,30.17,SW,232,1.0,3.0,36,0.00,,,0.00,,2013-05-31 07:01:00,
2013-05-31 01:11:00,46.0,21.0,30.17,SW,232,1.0,3.0,36,0.00,,,0.00,,2013-05-31 07:11:00,
2013-05-31 01:21:00,45.0,20.0,30.17,SW,232,3.0,4.0,37,0.00,,,0.00,,2013-05-31 07:21:00,
2013-05-31 01:32:00,44.0,21.0,30.16,SW,232,3.0,4.0,39,0.00,,,0.00,,2013-05-31 07:32:00,
2013-05-31 01:41:00,44.0,21.0,30.16,SW,232,3.0,4.0,39,0.00,,,0.00,,2013-05-31 07:41:00,
2013-05-31 01:52:00,44.0,21.0,30.16,SW,214,4.0,5.0,40,0.00,,,0.00,,2013-05-31 07:52:00,
2013-05-31 02:01:00,43.0,21.0,30.16,SW,214,3.0,5.0,41,0.00,,,0.00,,2013-05-31 08:01:00,
2013-05-31 02:11:00,43.0,21.0,30.16,SW,214,3.0,5.0,41,0.00,,,0.00,,2013-05-31 08:11:00,
2013-05-31 02:21:00,43.0,21.0,30.16,SSW,213,3.0,5.0,41,0.00,,,0.00,,2013-05-31 08:21:00,
2013-05-31 02:31:00,43.0,21.0,30.15,SW,214,2.0,4.0,41,0.00,,,0.00,,2013-05-31 08:31:00,
2013-05-31 02:42:00,43.0,21.0,30.15,SW,214,2.0,4.0,41,0.00,,,0.00,,2013-05-31 08:42:00,
2013-05-31 02:52:00,43.0,21.0,30.15,SW,214,3.0,5.0,41,0.00,,,0.00,,2013-05-31 08:52:00,
2013-05-31 03:01:00,44.0,22.0,30.16,SW,229,2.0,6.0,41,0.00,,,0.00,,2013-05-31 09:01:00,
2013-05-31 03:11:00,44.0,22.0,30.16,SW,229,2.0,6.0,41,0.00,,,0.00,,2013-05-31 09:11:00,
2013-05-31 03:21:00,43.0,22.0,30.16,SW,229,3.0,5.0,42,0.00,,,0.00,,2013-05-31 09:21:00,
2013-05-31 03:32:00,43.0,22.0,30.16,SW,225,0.0,4.0,42,0.00,,,0.00,,2013-05-31 09:32:00,
2013-05-31 03:43:00,43.0,22.0,30.16,SW,225,0.0,4.0,42,0.00,,,0.00,,2013-05-31 09:43:00,
2013-05-31 03:53:00,43.0,22.0,30.16,SSW,205,5.0,7.0,43,0.00,,,0.00,,2013-05-31 09:53:00,
2013-05-31 04:02:00,43.0,23.0,30.15,SSW,204,6.0,10.0,44,0.00,,,0.00,,2013-05-31 10:02:00,
2013-05-31 04:12:00,43.0,23.0,30.15,SSW,204,6.0,10.0,44,0.00,,,0.00,,2013-05-31 10:12:00,
2013-05-31 04:22:00,43.0,23.0,30.15,SSW,192,1.0,7.0,44,0.00,,,0.00,,2013-05-31 10:22:00,
2013-05-31 04:32:00,43.0,23.0,30.16,SSW,202,3.0,5.0,44,0.00,,,0.00,,2013-05-31 10:32:00,
2013-05-31 04:42:00,43.0,23.0,30.16,SSW,202,3.0,5.0,44,0.00,,,0.00,,2013-05-31 10:42:00,
2013-05-31 04:52:00,43.0,23.0,30.16,SSW,200,2.0,6.0,44,0.00,,,0.00,,2013-05-31 10:52:00,
2013-05-31 05:01:00,42.0,22.0,30.16,NW,313,0.0,5.0,45,0.00,,,0.00,,2013-05-31 11:01:00,
2013-05-31 05:11:00,42.0,22.0,30.16,NW,313,0.0,5.0,45,0.00,,,0.00,,2013-05-31 11:11:00,
2013-05-31 05:22:00,42.0,22.0,30.16,SSW,213,3.0,6.0,45,0.00,,,0.00,,2013-05-31 11:22:00,
2013-05-31 05:32:00,42.0,22.0,30.16,SSW,213,4.0,8.0,44,0.00,,,0.00,,2013-05-31 11:32:00,
2013-05-31 05:42:00,42.0,22.0,30.16,SSW,213,4.0,8.0,44,0.00,,,0.00,,2013-05-31 11:42:00,
2013-05-31 05:52:00,42.0,22.0,30.17,SW,225,4.0,6.0,44,0.00,,,0.00,,2013-05-31 11:52:00,
2013-05-31 06:01:00,42.0,22.0,30.17,WSW,248,0.0,2.0,44,0.00,,,0.00,,2013-05-31 12:01:00,
2013-05-31 06:11:00,42.0,22.0,30.17,WSW,248,0.0,2.0,44,0.00,,,0.00,,2013-05-31 12:11:00,
2013-05-31 06:21:00,42.0,22.0,30.18,WSW,248,0.0,0.0,45,0.00,,,0.00,,2013-05-31 12:21:00,
2013-05-31 06:31:00,42.0,22.0,30.19,WSW,255,1.0,4.0,45,0.00,,,0.00,,2013-05-31 12:31:00,
2013-05-31 06:41:00,42.0,22.0,30.19,WSW,255,1.0,4.0,45,0.00,,,0.00,,2013-05-31 12:41:00,
2013-05-31 06:52:00,42.0,22.0,30.21,West,262,0.0,4.0,44,0.00,,,0.00,,2013-05-31 12:52:00,
2013-05-31 07:01:00,43.0,23.0,30.22,NW,313,3.0,7.0,45,0.00,,,0.00,,2013-05-31 13:01:00,
2013-05-31 07:11:00,43.0,23.0,30.22,NW,313,3.0,7.0,45,0.00,,,0.00,,2013-05-31 13:11:00,
2013-05-31 07:21:00,44.0,23.0,30.23,NW,324,3.0,8.0,43,0.00,,,0.00,,2013-05-31 13:21:00,
2013-05-31 07:32:00,44.0,23.0,30.23,WNW,294,6.0,9.0,44,0.00,,,0.00,,2013-05-31 13:32:00,
2013-05-31 07:42:00,44.0,23.0,30.23,WNW,294,6.0,9.0,44,0.00,,,0.00,,2013-05-31 13:42:00,
2013-05-31 07:52:00,45.0,25.0,30.23,West,275,4.0,8.0,45,0.00,,,0.00,,2013-05-31 13:52:00,
2013-05-31 08:02:00,45.0,24.0,30.23,SSE,158,6.0,9.0,43,0.00,,,0.00,,2013-05-31 14:02:00,
2013-05-31 08:11:00,45.0,24.0,30.23,SSE,158,6.0,9.0,43,0.00,,,0.00,,2013-05-31 14:11:00,
2013-05-31 08:21:00,45.0,25.0,30.22,SSE,161,9.0,14.0,45,0.00,,,0.00,,2013-05-31 14:21:00,
2013-05-31 08:31:00,44.0,25.0,30.22,SE,146,8.0,16.0,47,0.00,,,0.00,,2013-05-31 14:31:00,
2013-05-31 08:41:00,44.0,25.0,30.22,SE,146,8.0,16.0,47,0.00,,,0.00,,2013-05-31 14:41:00,
2013-05-31 08:52:00,46.0,26.0,30.22,SSW,197,8.0,13.0,46,0.00,,,0.00,,2013-05-31 14:52:00,
2013-05-31 09:01:00,47.0,27.0,30.22,South,175,6.0,14.0,45,0.00,,,0.00,,2013-05-31 15:01:00,
2013-05-31 09:11:00,47.0,27.0,30.22,South,175,6.0,14.0,45,0.00,,,0.00,,2013-05-31 15:11:00,
2013-05-31 09:21:00,49.0,28.0,30.22,SSE,147,5.0,13.0,44,0.00,,,0.00,,2013-05-31 15:21:00,
2013-05-31 09:33:00,51.0,28.0,30.22,SSW,200,6.0,12.0,40,0.00,,,0.00,,2013-05-31 15:33:00,
2013-05-31 09:43:00,51.0,28.0,30.22,SSW,200,6.0,12.0,40,0.00,,,0.00,,2013-05-31 15:43:00,
2013-05-31 09:53:00,55.0,26.0,30.22,West,276,7.0,14.0,32,0.00,,,0.00,,2013-05-31 15:53:00,
2013-05-31 10:03:00,55.0,23.0,30.22,NW,311,8.0,16.0,28,0.00,,,0.00,,2013-05-31 16:03:00,
2013-05-31 10:12:00,55.0,23.0,30.22,NW,311,8.0,16.0,28,0.00,,,0.00,,2013-05-31 16:12:00,
2013-05-31 10:22:00,56.0,25.0,30.22,NW,312,7.0,19.0,30,0.00,,,0.00,,2013-05-31 16:22:00,
2013-05-31 10:33:00,55.0,24.0,30.21,NNE,19,1.0,15.0,30,0.00,,,0.00,,2013-05-31 16:33:00,
2013-05-31 10:42:00,55.0,24.0,30.21,NNE,19,1.0,15.0,30,0.00,,,0.00,,2013-05-31 16:42:00,
2013-05-31 10:52:00,56.0,24.0,30.22,North,5,4.0,9.0,29,0.00,,,0.00,,2013-05-31 16:52:00,
2013-05-31 11:02:00,55.0,24.0,30.22,SW,234,5.0,8.0,30,0.00,,,0.00,,2013-05-31 17:02:00,
2013-05-31 11:12:00,55.0,24.0,30.22,SW,234,5.0,8.0,30,0.00,,,0.00,,2013-05-31 17:12:00,
2013-05-31 11:22:00,57.0,23.0,30.22,NNW,329,8.0,24.0,27,0.00,,,0.00,,2013-05-31 17:22:00,
2013-05-31 11:31:00,57.0,23.0,30.22,NW,304,4.0,7.0,27,0.00,,,0.00,,2013-05-31 17:31:00,
2013-05-31 11:42:00,57.0,23.0,30.22,NW,304,4.0,7.0,27,0.00,,,0.00,,2013-05-31 17:42:00,
2013-05-31 11:52:00,55.0,23.0,30.22,North,355,7.0,15.0,29,0.00,,,0.00,,2013-05-31 17:52:00,
2013-05-31 12:01:00,58.0,25.0,30.22,NNW,333,8.0,16.0,28,0.00,,,0.00,,2013-05-31 18:01:00,
2013-05-31 12:11:00,58.0,25.0,30.22,NNW,333,8.0,16.0,28,0.00,,,0.00,,2013-05-31 18:11:00,
2013-05-31 12:22:00,57.0,24.0,30.23,NW,312,9.0,18.0,28,0.00,,,0.00,,2013-05-31 18:22:00,
2013-05-31 12:31:00,59.0,23.0,30.23,North,355,9.0,18.0,25,0.00,,,0.00,,2013-05-31 18:31:00,
2013-05-31 12:41:00,59.0,23.0,30.23,North,355,9.0,18.0,25,0.00,,,0.00,,2013-05-31 18:41:00,
2013-05-31 12:52:00,57.0,22.0,30.22,NE,35,7.0,16.0,26,0.00,,,0.00,,2013-05-31 18:52:00,
2013-05-31 13:01:00,59.0,21.0,30.23,WNW,296,12.0,21.0,23,0.00,,,0.00,,2013-05-31 19:01:00,
2013-05-31 13:11:00,59.0,21.0,30.23,WNW,296,12.0,21.0,23,0.00,,,0.00,,2013-05-31 19:11:00,
2013-05-31 13:22:00,59.0,20.0,30.22,North,350,8.0,21.0,22,0.00,,,0.00,,2013-05-31 19:22:00,
2013-05-31 13:31:00,60.0,20.0,30.22,NNE,19,8.0,19.0,21,0.00,,,0.00,,2013-05-31 19:31:00,
2013-05-31 13:42:00,60.0,20.0,30.22,NNE,19,8.0,19.0,21,0.00,,,0.00,,2013-05-31 19:42:00,
2013-05-31 13:52:00,60.0,19.0,30.22,NW,311,12.0,20.0,20,0.00,,,0.00,,2013-05-31 19:52:00,
2013-05-31 14:01:00,60.0,19.0,30.22,NE,42,5.0,20.0,20,0.00,,,0.00,,2013-05-31 20:01:00,
2013-05-31 14:11:00,60.0,19.0,30.22,NE,42,5.0,20.0,20,0.00,,,0.00,,2013-05-31 20:11:00,
2013-05-31 14:22:00,61.0,17.0,30.22,NW,317,8.0,18.0,18,0.00,,,0.00,,2013-05-31 20:22:00,
2013-05-31 14:31:00,61.0,17.0,30.22,NNW,340,12.0,21.0,18,0.00,,,0.00,,2013-05-31 20:31:00,
2013-05-31 14:41:00,61.0,17.0,30.22,NNW,340,12.0,21.0,18,0.00,,,0.00,,2013-05-31 20:41:00,
2013-05-31 14:52:00,61.0,16.0,30.22,WNW,302,10.0,20.0,17,0.00,,,0.00,,2013-05-31 20:52:00,
2013-05-31 15:01:00,62.0,18.0,30.22,North,355,6.0,16.0,18,0.00,,,0.00,,2013-05-31 21:01:00,
2013-05-31 15:11:00,62.0,18.0,30.22,North,355,6.0,16.0,18,0.00,,,0.00,,2013-05-31 21:11:00,
2013-05-31 15:22:00,62.0,15.0,30.22,NNW,337,8.0,16.0,16,0.00,,,0.00,,2013-05-31 21:22:00,
2013-05-31 15:32:00,62.0,15.0,30.22,NNW,348,8.0,19.0,16,0.00,,,0.00,,2013-05-31 21:32:00,
2013-05-31 15:42:00,62.0,15.0,30.22,NNW,348,8.0,19.0,16,0.00,,,0.00,,2013-05-31 21:42:00,
2013-05-31 15:54:00,62.0,14.0,30.22,NNE,14,11.0,17.0,15,0.00,,,0.00,,2013-05-31 21:54:00,
2013-05-31 16:02:00,62.0,15.0,30.22,North,360,10.0,19.0,16,0.00,,,0.00,,2013-05-31 22:02:00,
2013-05-31 16:12:00,62.0,15.0,30.22,North,360,10.0,19.0,16,0.00,,,0.00,,2013-05-31 22:12:00,
2013-05-31 16:22:00,62.0,14.0,30.22,NNE,26,10.0,23.0,15,0.00,,,0.00,,2013-05-31 22:22:00,
2013-05-31 16:33:00,62.0,15.0,30.21,North,360,10.0,15.0,16,0.00,,,0.00,,2013-05-31 22:33:00,
2013-05-31 16:41:00,62.0,15.0,30.21,North,360,10.0,15.0,16,0.00,,,0.00,,2013-05-31 22:41:00,
2013-05-31 16:52:00,62.0,17.0,30.22,NW,319,9.0,19.0,17,0.00,,,0.00,,2013-05-31 22:52:00,
2013-05-31 17:02:00,63.0,18.0,30.22,NW,319,9.0,21.0,17,0.00,,,0.00,,2013-05-31 23:02:00,
2013-05-31 17:12:00,63.0,18.0,30.22,NW,319,9.0,21.0,17,0.00,,,0.00,,2013-05-31 23:12:00,
2013-05-31 17:21:00,63.0,18.0,30.22,North,350,6.0,18.0,17,0.00,,,0.00,,2013-05-31 23:21:00,
2013-05-31 17:32:00,61.0,18.0,30.22,WNW,288,7.0,15.0,19,0.00,,,0.00,,2013-05-31 23:32:00,
2013-05-31 17:42:00,61.0,18.0,30.22,WNW,288,7.0,15.0,19,0.00,,,0.00,,2013-05-31 23:42:00,
2013-05-31 17:52:00,61.0,17.0,30.22,NW,321,5.0,12.0,18,0.00,,,0.00,,2013-05-31 23:52:00,
2013-05-31 18:01:00,62.0,17.0,30.22,North,355,6.0,17.0,17,0.00,,,0.00,,2013-06-01 00:01:00,
2013-05-31 18:11:00,62.0,17.0,30.22,North,355,6.0,17.0,17,0.00,,,0.00,,2013-06-01 00:11:00,
2013-05-31 18:22:00,62.0,17.0,30.22,NNE,18,6.0,12.0,17,0.00,,,0.00,,2013-06-01 00:22:00,
2013-05-31 18:31:00,61.0,16.0,30.22,NNW,343,6.0,13.0,17,0.00,,,0.00,,2013-06-01 00:31:00,
2013-05-31 18:42:00,61.0,16.0,30.22,NNW,343,6.0,13.0,17,0.00,,,0.00,,2013-06-01 00:42:00,
2013-05-31 18:52:00,61.0,17.0,30.23,NW,315,6.0,16.0,18,0.00,,,0.00,,2013-06-01 00:52:00,
2013-05-31 19:01:00,61.0,16.0,30.22,NE,34,3.0,9.0,17,0.00,,,0.00,,2013-06-01 01:01:00,
2013-05-31 19:11:00,61.0,16.0,30.22,NE,34,3.0,9.0,17,0.00,,,0.00,,2013-06-01 01:11:00,
2013-05-31 19:21:00,60.0,15.0,30.23,NW,317,6.0,10.0,17,0.00,,,0.00,,2013-06-01 01:21:00,
2013-05-31 19:31:00,60.0,15.0,30.23,NNW,336,2.0,10.0,17,0.00,,,0.00,,2013-06-01 01:31:00,
2013-05-31 19:42:00,59.0,14.0,30.23,NW,317,2.0,11.0,17,0.00,,,0.00,,2013-06-01 01:42:00,
2013-05-31 19:52:00,59.0,14.0,30.23,NW,317,2.0,11.0,17,0.00,,,0.00,,2013-06-01 01:52:00,
2013-05-31 20:01:00,58.0,16.0,30.23,NNW,333,2.0,8.0,19,0.00,,,0.00,,2013-06-01 02:01:00,
2013-05-31 20:11:00,58.0,16.0,30.23,NNW,333,2.0,8.0,19,0.00,,,0.00,,2013-06-01 02:11:00,
2013-05-31 20:21:00,57.0,17.0,30.23,NNW,333,0.0,3.0,21,0.00,,,0.00,,2013-06-01 02:21:00,
2013-05-31 20:31:00,56.0,20.0,30.24,NNW,333,1.0,3.0,24,0.00,,,0.00,,2013-06-01 02:31:00,
2013-05-31 20:42:00,54.0,19.0,30.24,NNW,333,2.0,4.0,25,0.00,,,0.00,,2013-06-01 02:42:00,
2013-05-31 20:52:00,54.0,19.0,30.24,NNW,333,2.0,4.0,25,0.00,,,0.00,,2013-06-01 02:52:00,
2013-05-31 21:01:00,51.0,18.0,30.25,NNW,331,3.0,5.0,27,0.00,,,0.00,,2013-06-01 03:01:00,
2013-05-31 21:11:00,51.0,18.0,30.25,NNW,331,3.0,5.0,27,0.00,,,0.00,,2013-06-01 03:11:00,
2013-05-31 21:21:00,49.0,16.0,30.25,West,266,4.0,5.0,27,0.00,,,0.00,,2013-06-01 03:21:00,
2013-05-31 21:33:00,48.0,15.0,30.27,WNW,284,4.0,12.0,26,0.00,,,0.00,,2013-06-01 03:33:00,
2013-05-31 21:43:00,48.0,12.0,30.27,WNW,285,5.0,9.0,23,0.00,,,0.00,,2013-06-01 03:43:00,
2013-05-31 21:53:00,48.0,12.0,30.27,WNW,285,5.0,9.0,23,0.00,,,0.00,,2013-06-01 03:53:00,
2013-05-31 22:02:00,49.0,9.0,30.27,WNW,287,6.0,12.0,19,0.00,,,0.00,,2013-06-01 04:02:00,
2013-05-31 22:12:00,49.0,9.0,30.27,WNW,287,6.0,12.0,19,0.00,,,0.00,,2013-06-01 04:12:00,
2013-05-31 22:23:00,49.0,7.0,30.28,WNW,286,5.0,11.0,18,0.00,,,0.00,,2013-06-01 04:23:00,
2013-05-31 22:33:00,49.0,6.0,30.28,WNW,294,5.0,9.0,17,0.00,,,0.00,,2013-06-01 04:33:00,
2013-05-31 22:42:00,49.0,5.0,30.28,West,277,6.0,10.0,16,0.00,,,0.00,,2013-06-01 04:42:00,
2013-05-31 22:53:00,49.0,5.0,30.28,West,277,6.0,10.0,16,0.00,,,0.00,,2013-06-01 04:53:00,
2013-05-31 23:02:00,49.0,5.0,30.28,WNW,288,7.0,12.0,16,0.00,,,0.00,,2013-06-01 05:02:00,
2013-05-31 23:12:00,49.0,5.0,30.28,WNW,288,7.0,12.0,16,0.00,,,0.00,,2013-06-01 05:12:00,
2013-05-31 23:22:00,49.0,5.0,30.28,WSW,255,6.0,10.0,16,0.00,,,0.00,,2013-06-01 05:22:00,
2013-05-31 23:32:00,49.0,5.0,30.29,NW,321,1.0,10.0,16,0.00,,,0.00,,2013-06-01 05:32:00,
2013-05-31 23:42:00,48.0,7.0,30.29,East,90,1.0,5.0,18,0.00,,,0.00,,2013-06-01 05:42:00,
2013-05-31 23:52:00,48.0,7.0,30.29,East,90,1.0,5.0,18,0.00,,,0.00,,2013-06-01 05:52:00,